createdAt,value
2022-09-05T00:02:30.501Z,0.00
2022-09-05T00:07:38.775Z,0.00
2022-09-05T00:12:31.281Z,0.00
2022-09-05T00:17:39.416Z,0.00
2022-09-05T00:24:37.160Z,0.00
2022-09-05T00:27:31.111Z,0.00
2022-09-05T00:32:30.087Z,0.00
2022-09-05T00:37:30.144Z,0.00
2022-09-05T00:42:29.904Z,0.00
2022-09-05T00:47:33.081Z,0.00
2022-09-05T00:52:29.727Z,0.00
2022-09-05T00:57:29.667Z,0.00
2022-09-05T01:02:29.992Z,0.00
2022-09-05T01:07:30.247Z,0.00
2022-09-05T01:12:29.614Z,0.00
2022-09-05T01:17:29.482Z,0.00
2022-09-05T01:22:29.371Z,0.00
2022-09-05T01:27:54.651Z,0.00
2022-09-05T01:32:30.261Z,0.00
2022-09-05T01:37:33.291Z,0.00
2022-09-05T01:42:31.722Z,0.00
2022-09-05T01:47:32.106Z,0.00
2022-09-05T01:52:29.139Z,0.00
2022-09-05T01:57:29.297Z,0.00
2022-09-05T02:02:29.016Z,0.00
2022-09-05T02:07:30.978Z,0.00
2022-09-05T02:12:28.884Z,0.00
2022-09-05T02:17:51.279Z,0.00
2022-09-05T02:22:29.584Z,0.00
2022-09-05T02:28:03.540Z,0.00
2022-09-05T02:32:29.701Z,0.00
2022-09-05T02:38:03.260Z,0.00
2022-09-05T02:45:21.695Z,0.00
2022-09-05T02:47:32.299Z,0.00
2022-09-05T02:57:26.798Z,0.00
2022-09-05T02:58:08.092Z,0.00
2022-09-05T03:03:39.769Z,0.00
2022-09-05T03:08:39.550Z,0.00
2022-09-05T03:13:48.934Z,0.00
2022-09-05T03:18:40.514Z,0.00
2022-09-05T03:23:39.614Z,0.00
2022-09-05T03:28:39.272Z,0.00
2022-09-05T03:33:39.273Z,0.00
2022-09-05T03:38:39.302Z,0.00
2022-09-05T03:43:39.277Z,0.00
2022-09-05T03:48:39.334Z,0.00
2022-09-05T03:57:10.811Z,0.00
2022-09-05T03:58:56.299Z,4.00
2022-09-05T04:08:10.404Z,4.00
2022-09-05T04:08:43.170Z,12.00
2022-09-05T04:13:38.666Z,20.00
2022-09-05T04:18:38.579Z,52.00
2022-09-05T04:23:38.684Z,100.00
2022-09-05T04:28:38.422Z,172.00
2022-09-05T04:33:38.554Z,304.00
2022-09-05T04:38:38.324Z,464.00
2022-09-05T04:43:38.509Z,656.00
2022-09-05T04:48:38.501Z,864.00
2022-09-05T04:53:41.199Z,1300.00
2022-09-05T04:59:40.263Z,1636.00
2022-09-05T05:06:09.240Z,2040.00
2022-09-05T05:08:39.594Z,3156.00
2022-09-05T05:18:00.667Z,4408.00
2022-09-05T05:18:53.343Z,6144.00
2022-09-05T05:23:38.739Z,6652.00
2022-09-05T05:28:37.754Z,8012.00
2022-09-05T05:33:37.623Z,9028.00
2022-09-05T05:38:37.619Z,9340.00
2022-09-05T05:43:37.657Z,10628.00
2022-09-05T05:48:37.401Z,11408.00
2022-09-05T05:53:43.701Z,12312.00
2022-09-05T05:58:37.280Z,14368.00
2022-09-05T06:03:37.321Z,12352.00
2022-09-05T06:12:01.160Z,18336.00
2022-09-05T06:15:01.053Z,17664.00
2022-09-05T06:18:37.980Z,18240.00
2022-09-05T06:23:39.906Z,20448.00
2022-09-05T06:28:37.005Z,25696.00
2022-09-05T06:33:36.871Z,19520.00
2022-09-05T06:38:36.860Z,20128.00
2022-09-05T06:43:36.721Z,17664.00
2022-09-05T06:48:47.085Z,16896.00
2022-09-05T06:53:40.547Z,16160.00
2022-09-05T06:58:36.474Z,24384.00
2022-09-05T07:03:36.425Z,9608.00
2022-09-05T07:08:37.349Z,8848.00
2022-09-05T07:13:38.862Z,8164.00
2022-09-05T07:19:47.800Z,8064.00
2022-09-05T07:24:55.016Z,12664.00
2022-09-05T07:30:01.180Z,9080.00
2022-09-05T07:34:48.599Z,10456.00
2022-09-05T07:39:48.118Z,35264.00
2022-09-05T07:44:47.461Z,21984.00
2022-09-05T07:50:23.391Z,26112.00
2022-09-05T07:57:05.170Z,12880.00
2022-09-05T07:59:48.555Z,10696.00
2022-09-05T08:04:47.301Z,9840.00
2022-09-05T08:10:06.456Z,6700.00
2022-09-05T08:14:48.163Z,6236.00
2022-09-05T08:19:47.319Z,6096.00
2022-09-05T08:24:47.499Z,6020.00
2022-09-05T08:29:47.102Z,6036.00
2022-09-05T08:34:47.032Z,6004.00
2022-09-05T08:39:46.913Z,5872.00
2022-09-05T08:46:41.710Z,5784.00
2022-09-05T08:49:48.244Z,5624.00
2022-09-05T08:56:59.426Z,5532.00
2022-09-05T09:02:46.220Z,5468.00
2022-09-05T09:07:46.437Z,5400.00
2022-09-05T09:11:59.814Z,5380.00
2022-09-05T09:16:58.934Z,5360.00
2022-09-05T09:21:58.831Z,5236.00
2022-09-05T09:26:58.826Z,5448.00
2022-09-05T09:32:06.294Z,5724.00
2022-09-05T09:36:58.816Z,5796.00
2022-09-05T09:41:58.418Z,6160.00
2022-09-05T09:47:01.429Z,6504.00
2022-09-05T09:51:58.255Z,6792.00
2022-09-05T09:56:58.423Z,7176.00
2022-09-05T10:02:20.430Z,7480.00
2022-09-05T10:10:56.163Z,6984.00
2022-09-05T10:12:05.321Z,6948.00
2022-09-05T10:16:58.062Z,6560.00
2022-09-05T10:26:58.736Z,5740.00
2022-09-05T10:35:11.770Z,5584.00
2022-09-05T10:36:58.661Z,5524.00
2022-09-05T10:42:01.338Z,5404.00
2022-09-05T10:47:01.571Z,5340.00
2022-09-05T10:51:58.328Z,5420.00
2022-09-05T10:56:58.418Z,5056.00
2022-09-05T11:02:29.118Z,5292.00
2022-09-05T11:06:58.341Z,5700.00
2022-09-05T11:11:57.251Z,6080.00
2022-09-05T11:16:57.174Z,5720.00
2022-09-05T11:22:13.680Z,5680.00
2022-09-05T11:28:08.119Z,5128.00
2022-09-05T11:39:58.953Z,5016.00
2022-09-05T11:40:09.797Z,4752.00
2022-09-05T11:43:09.319Z,5068.00
2022-09-05T11:48:07.779Z,5896.00
2022-09-05T11:53:07.934Z,6904.00
2022-09-05T11:58:29.638Z,8328.00
2022-09-05T12:03:09.141Z,7252.00
2022-09-05T12:08:08.148Z,7196.00
2022-09-05T12:13:07.512Z,6872.00
2022-09-05T12:18:18.928Z,6988.00
2022-09-05T12:23:08.321Z,7428.00
2022-09-05T12:29:26.250Z,7620.00
2022-09-05T12:36:01.457Z,8288.00
2022-09-05T12:40:55.102Z,9276.00
2022-09-05T12:43:42.497Z,9872.00
2022-09-05T12:48:08.241Z,10060.00
2022-09-05T12:53:06.880Z,10288.00
2022-09-05T13:02:53.389Z,8876.00
2022-09-05T13:03:28.214Z,7340.00
2022-09-05T13:08:07.694Z,7516.00
2022-09-05T13:14:57.930Z,6364.00
2022-09-05T13:18:10.730Z,6256.00
2022-09-05T13:23:06.552Z,6236.00
2022-09-05T13:28:06.536Z,7556.00
2022-09-05T13:38:05.626Z,8232.00
2022-09-05T13:44:26.208Z,10100.00
2022-09-05T13:49:29.190Z,10308.00
2022-09-05T13:54:18.546Z,10964.00
2022-09-05T13:59:17.864Z,11768.00
2022-09-05T14:05:05.293Z,11544.00
2022-09-05T14:15:08.194Z,11536.00
2022-09-05T14:19:19.434Z,11916.00
2022-09-05T14:24:17.298Z,12668.00
2022-09-05T14:29:18.064Z,11736.00
2022-09-05T14:37:52.007Z,12672.00
2022-09-05T14:39:18.178Z,11960.00
2022-09-05T14:44:16.937Z,12300.00
2022-09-05T14:49:18.306Z,11228.00
2022-09-05T15:02:54.722Z,9964.00
2022-09-05T15:04:33.034Z,10092.00
2022-09-05T15:11:25.679Z,9616.00
2022-09-05T15:14:24.179Z,9112.00
2022-09-05T15:19:23.954Z,8820.00
2022-09-05T15:24:17.529Z,8268.00
2022-09-05T15:29:16.301Z,4956.00
2022-09-05T15:34:19.393Z,4736.00
2022-09-05T15:39:25.133Z,4588.00
2022-09-05T15:44:16.306Z,5220.00
2022-09-05T15:49:16.119Z,5124.00
2022-09-05T15:54:17.171Z,5184.00
2022-09-05T15:59:17.367Z,4924.00
2022-09-05T16:07:29.434Z,4588.00
2022-09-05T16:10:58.666Z,4268.00
2022-09-05T16:14:16.806Z,3804.00
2022-09-05T16:23:29.136Z,4088.00
2022-09-05T16:24:16.786Z,3556.00
2022-09-05T16:29:15.986Z,3112.00
2022-09-05T16:34:19.519Z,2904.00
2022-09-05T16:39:15.657Z,2776.00
2022-09-05T16:44:15.597Z,2792.00
2022-09-05T16:49:15.276Z,2480.00
2022-09-05T16:54:15.303Z,2588.00
2022-09-05T16:59:15.233Z,2172.00
2022-09-05T17:04:15.968Z,1804.00
2022-09-05T17:09:15.009Z,1504.00
2022-09-05T17:14:15.121Z,1176.00
2022-09-05T17:19:15.089Z,916.00
2022-09-05T17:29:15.274Z,704.00
2022-09-05T17:30:27.734Z,576.00
2022-09-05T17:34:19.434Z,444.00
2022-09-05T17:39:14.684Z,320.00
2022-09-05T17:44:14.879Z,232.00
2022-09-05T17:49:19.675Z,160.00
2022-09-05T17:55:28.376Z,88.00
2022-09-05T18:00:32.203Z,52.00
2022-09-05T18:05:28.265Z,24.00
2022-09-05T18:10:28.143Z,12.00
2022-09-05T18:15:27.964Z,4.00
2022-09-05T18:20:27.878Z,0.00
2022-09-05T18:25:33.354Z,0.00
2022-09-05T18:30:28.731Z,0.00
2022-09-05T18:35:37.024Z,0.00
2022-09-05T18:40:35.853Z,0.00
2022-09-05T18:45:33.950Z,0.00
2022-09-05T18:50:28.358Z,0.00
2022-09-05T18:56:10.320Z,0.00
2022-09-05T19:00:40.090Z,0.00
2022-09-05T19:05:28.902Z,0.00
2022-09-05T19:10:36.254Z,0.00
2022-09-05T19:15:28.217Z,0.00
2022-09-05T19:20:31.502Z,0.00
2022-09-05T19:25:30.589Z,0.00
2022-09-05T19:36:57.235Z,0.00
2022-09-05T19:37:02.249Z,0.00
2022-09-05T19:47:25.290Z,0.00
2022-09-05T19:47:42.805Z,0.00
2022-09-05T19:51:49.173Z,0.00
2022-09-05T19:56:41.202Z,0.00
2022-09-05T20:01:41.608Z,0.00
2022-09-05T20:06:41.082Z,0.00
2022-09-05T20:11:46.367Z,0.00
2022-09-05T20:16:41.969Z,0.00
2022-09-05T20:21:40.937Z,0.00
2022-09-05T20:26:40.959Z,0.00
2022-09-05T20:31:40.767Z,0.00
2022-09-05T20:43:10.689Z,0.00
2022-09-05T20:43:24.764Z,0.00
2022-09-05T20:48:23.961Z,0.00
2022-09-05T20:54:27.633Z,0.00
2022-09-05T20:56:41.494Z,0.00
2022-09-05T21:01:40.532Z,0.00
2022-09-05T21:06:48.314Z,0.00
2022-09-05T21:11:40.162Z,0.00
2022-09-05T21:16:40.227Z,0.00
2022-09-05T21:21:40.149Z,0.00
2022-09-05T21:26:40.114Z,0.00
2022-09-05T21:31:40.056Z,0.00
2022-09-05T21:36:43.089Z,0.00
2022-09-05T21:41:39.844Z,0.00
2022-09-05T21:47:48.364Z,0.00
2022-09-05T21:51:40.832Z,0.00
2022-09-05T21:59:28.693Z,0.00
2022-09-05T22:01:52.725Z,0.00
2022-09-05T22:06:40.534Z,0.00
2022-09-05T22:11:39.478Z,0.00
2022-09-05T22:16:40.046Z,0.00
2022-09-05T22:21:40.287Z,0.00
2022-09-05T22:26:40.324Z,0.00
2022-09-05T22:31:40.420Z,0.00
2022-09-05T22:36:42.294Z,0.00
2022-09-05T22:41:38.984Z,0.00
2022-09-05T22:46:38.974Z,0.00
2022-09-05T22:51:38.875Z,0.00
2022-09-05T22:56:38.926Z,0.00
2022-09-05T23:01:38.723Z,0.00
2022-09-05T23:06:38.723Z,0.00
2022-09-05T23:11:38.653Z,0.00
2022-09-05T23:16:38.763Z,0.00
2022-09-05T23:21:38.541Z,0.00
2022-09-05T23:26:38.603Z,0.00
2022-09-05T23:31:38.544Z,0.00
2022-09-05T23:36:41.339Z,0.00
2022-09-05T23:41:38.318Z,0.00
2022-09-05T23:46:38.185Z,0.00
2022-09-05T23:51:38.208Z,0.00
2022-09-05T23:56:47.168Z,0.00
